sensor_id;sensor_type;location;lat;lon;timestamp;P1;durP1;ratioP1;P2;durP2;ratioP2
51148;SDS011;37210;50.058;8.688;2022-11-11T00:01:48;9.43;;;8.07;;
51148;SDS011;37210;50.058;8.688;2022-11-11T00:04:34;8.95;;;8.07;;
51148;SDS011;37210;50.058;8.688;2022-11-11T00:07:21;8.55;;;7.65;;
51148;SDS011;37210;50.058;8.688;2022-11-11T00:10:08;8.73;;;7.35;;
51148;SDS011;37210;50.058;8.688;2022-11-11T00:12:57;10.57;;;7.93;;
51148;SDS011;37210;50.058;8.688;2022-11-11T00:15:45;13.88;;;7.60;;
51148;SDS011;37210;50.058;8.688;2022-11-11T00:18:30;7.97;;;7.00;;
51148;SDS011;37210;50.058;8.688;2022-11-11T00:21:34;7.43;;;6.72;;
51148;SDS011;37210;50.058;8.688;2022-11-11T00:24:47;7.45;;;6.75;;
51148;SDS011;37210;50.058;8.688;2022-11-11T00:27:51;8.65;;;7.22;;
51148;SDS011;37210;50.058;8.688;2022-11-11T00:30:38;8.43;;;7.47;;
51148;SDS011;37210;50.058;8.688;2022-11-11T00:33:24;9.93;;;8.18;;
51148;SDS011;37210;50.058;8.688;2022-11-11T00:36:10;10.07;;;8.07;;
51148;SDS011;37210;50.058;8.688;2022-11-11T00:38:56;9.35;;;7.60;;
51148;SDS011;37210;50.058;8.688;2022-11-11T00:41:43;11.00;;;7.53;;
51148;SDS011;37210;50.058;8.688;2022-11-11T00:44:29;9.15;;;7.38;;
51148;SDS011;37210;50.058;8.688;2022-11-11T00:47:15;10.07;;;6.97;;
51148;SDS011;37210;50.058;8.688;2022-11-11T00:50:19;7.60;;;6.80;;
51148;SDS011;37210;50.058;8.688;2022-11-11T00:53:27;8.55;;;7.68;;
51148;SDS011;37210;50.058;8.688;2022-11-11T00:56:15;9.35;;;8.38;;
51148;SDS011;37210;50.058;8.688;2022-11-11T00:59:03;8.93;;;7.80;;
51148;SDS011;37210;50.058;8.688;2022-11-11T01:01:51;10.23;;;7.32;;
51148;SDS011;37210;50.058;8.688;2022-11-11T01:04:39;8.88;;;7.93;;
51148;SDS011;37210;50.058;8.688;2022-11-11T01:07:26;9.60;;;8.13;;
51148;SDS011;37210;50.058;8.688;2022-11-11T01:10:12;10.98;;;8.05;;
51148;SDS011;37210;50.058;8.688;2022-11-11T01:13:19;12.13;;;7.63;;
51148;SDS011;37210;50.058;8.688;2022-11-11T01:16:12;10.15;;;7.50;;
51148;SDS011;37210;50.058;8.688;2022-11-11T01:19:01;10.27;;;7.88;;
51148;SDS011;37210;50.058;8.688;2022-11-11T01:21:47;8.07;;;7.00;;
51148;SDS011;37210;50.058;8.688;2022-11-11T01:24:33;8.82;;;7.18;;
51148;SDS011;37210;50.058;8.688;2022-11-11T01:27:21;8.85;;;7.72;;
51148;SDS011;37210;50.058;8.688;2022-11-11T01:30:07;8.23;;;7.40;;
51148;SDS011;37210;50.058;8.688;2022-11-11T01:32:58;11.02;;;7.22;;
51148;SDS011;37210;50.058;8.688;2022-11-11T01:38:30;7.03;;;6.32;;
51148;SDS011;37210;50.058;8.688;2022-11-11T01:41:17;8.90;;;7.00;;
51148;SDS011;37210;50.058;8.688;2022-11-11T01:44:19;7.75;;;6.65;;
51148;SDS011;37210;50.058;8.688;2022-11-11T01:47:27;9.85;;;7.07;;
51148;SDS011;37210;50.058;8.688;2022-11-11T01:50:36;7.45;;;6.35;;
51148;SDS011;37210;50.058;8.688;2022-11-11T01:53:21;7.73;;;6.63;;
51148;SDS011;37210;50.058;8.688;2022-11-11T01:56:07;8.00;;;6.45;;
51148;SDS011;37210;50.058;8.688;2022-11-11T01:58:57;7.13;;;6.43;;
51148;SDS011;37210;50.058;8.688;2022-11-11T02:01:50;8.18;;;6.55;;
51148;SDS011;37210;50.058;8.688;2022-11-11T02:04:36;7.68;;;6.63;;
51148;SDS011;37210;50.058;8.688;2022-11-11T02:07:41;8.05;;;6.72;;
51148;SDS011;37210;50.058;8.688;2022-11-11T02:10:30;8.27;;;5.95;;
51148;SDS011;37210;50.058;8.688;2022-11-11T02:13:18;8.35;;;6.07;;
51148;SDS011;37210;50.058;8.688;2022-11-11T02:16:22;7.22;;;6.13;;
51148;SDS011;37210;50.058;8.688;2022-11-11T02:19:09;7.97;;;6.05;;
51148;SDS011;37210;50.058;8.688;2022-11-11T02:21:56;7.43;;;6.32;;
51148;SDS011;37210;50.058;8.688;2022-11-11T02:24:47;7.82;;;6.70;;
51148;SDS011;37210;50.058;8.688;2022-11-11T02:27:36;8.68;;;6.03;;
51148;SDS011;37210;50.058;8.688;2022-11-11T02:30:27;8.95;;;6.32;;
51148;SDS011;37210;50.058;8.688;2022-11-11T02:33:13;7.77;;;6.37;;
51148;SDS011;37210;50.058;8.688;2022-11-11T02:35:59;7.70;;;6.35;;
51148;SDS011;37210;50.058;8.688;2022-11-11T02:38:46;8.82;;;6.63;;
51148;SDS011;37210;50.058;8.688;2022-11-11T02:41:34;8.82;;;7.07;;
51148;SDS011;37210;50.058;8.688;2022-11-11T02:44:38;9.60;;;7.05;;
51148;SDS011;37210;50.058;8.688;2022-11-11T02:47:24;8.85;;;7.13;;
51148;SDS011;37210;50.058;8.688;2022-11-11T02:50:11;9.50;;;7.03;;
51148;SDS011;37210;50.058;8.688;2022-11-11T02:52:57;11.98;;;7.95;;
51148;SDS011;37210;50.058;8.688;2022-11-11T02:55:43;7.97;;;7.22;;
51148;SDS011;37210;50.058;8.688;2022-11-11T02:58:30;8.00;;;7.20;;
51148;SDS011;37210;50.058;8.688;2022-11-11T03:01:17;9.95;;;7.47;;
51148;SDS011;37210;50.058;8.688;2022-11-11T03:04:06;9.10;;;7.57;;
51148;SDS011;37210;50.058;8.688;2022-11-11T03:06:52;9.27;;;7.28;;
51148;SDS011;37210;50.058;8.688;2022-11-11T03:09:39;10.38;;;7.32;;
51148;SDS011;37210;50.058;8.688;2022-11-11T03:12:25;9.23;;;7.35;;
51148;SDS011;37210;50.058;8.688;2022-11-11T03:15:12;7.90;;;7.07;;
51148;SDS011;37210;50.058;8.688;2022-11-11T03:17:58;8.00;;;7.15;;
51148;SDS011;37210;50.058;8.688;2022-11-11T03:20:44;9.80;;;7.78;;
51148;SDS011;37210;50.058;8.688;2022-11-11T03:23:50;8.95;;;7.45;;
51148;SDS011;37210;50.058;8.688;2022-11-11T03:26:37;11.27;;;8.27;;
51148;SDS011;37210;50.058;8.688;2022-11-11T03:29:23;9.52;;;7.40;;
51148;SDS011;37210;50.058;8.688;2022-11-11T03:32:11;9.27;;;7.20;;
51148;SDS011;37210;50.058;8.688;2022-11-11T03:34:57;8.43;;;7.20;;
51148;SDS011;37210;50.058;8.688;2022-11-11T03:37:43;10.48;;;7.45;;
51148;SDS011;37210;50.058;8.688;2022-11-11T03:40:47;14.05;;;11.45;;
51148;SDS011;37210;50.058;8.688;2022-11-11T03:43:35;16.40;;;13.45;;
51148;SDS011;37210;50.058;8.688;2022-11-11T03:46:21;14.60;;;11.23;;
51148;SDS011;37210;50.058;8.688;2022-11-11T03:49:09;21.30;;;14.35;;
51148;SDS011;37210;50.058;8.688;2022-11-11T03:51:55;31.73;;;12.93;;
51148;SDS011;37210;50.058;8.688;2022-11-11T03:54:41;16.05;;;10.30;;
51148;SDS011;37210;50.058;8.688;2022-11-11T03:57:27;30.63;;;10.48;;
51148;SDS011;37210;50.058;8.688;2022-11-11T04:00:17;23.05;;;10.18;;
51148;SDS011;37210;50.058;8.688;2022-11-11T04:03:08;16.02;;;9.38;;
51148;SDS011;37210;50.058;8.688;2022-11-11T04:06:16;22.20;;;9.13;;
51148;SDS011;37210;50.058;8.688;2022-11-11T04:09:20;16.35;;;9.00;;
51148;SDS011;37210;50.058;8.688;2022-11-11T04:12:26;13.82;;;8.45;;
51148;SDS011;37210;50.058;8.688;2022-11-11T04:15:36;12.18;;;8.90;;
51148;SDS011;37210;50.058;8.688;2022-11-11T04:18:40;19.73;;;8.70;;
51148;SDS011;37210;50.058;8.688;2022-11-11T04:21:46;15.93;;;8.07;;
51148;SDS011;37210;50.058;8.688;2022-11-11T04:24:42;19.10;;;8.68;;
51148;SDS011;37210;50.058;8.688;2022-11-11T04:27:46;14.98;;;8.88;;
51148;SDS011;37210;50.058;8.688;2022-11-11T04:30:52;10.40;;;9.00;;
51148;SDS011;37210;50.058;8.688;2022-11-11T04:33:37;10.07;;;8.35;;
51148;SDS011;37210;50.058;8.688;2022-11-11T04:36:23;11.25;;;9.07;;
51148;SDS011;37210;50.058;8.688;2022-11-11T04:39:11;10.15;;;8.40;;
51148;SDS011;37210;50.058;8.688;2022-11-11T04:42:15;13.07;;;8.50;;
51148;SDS011;37210;50.058;8.688;2022-11-11T04:45:01;16.02;;;9.32;;
51148;SDS011;37210;50.058;8.688;2022-11-11T04:48:07;13.10;;;9.00;;
51148;SDS011;37210;50.058;8.688;2022-11-11T04:50:56;9.48;;;8.38;;
51148;SDS011;37210;50.058;8.688;2022-11-11T04:53:42;11.05;;;9.02;;
51148;SDS011;37210;50.058;8.688;2022-11-11T04:56:29;12.45;;;9.02;;
51148;SDS011;37210;50.058;8.688;2022-11-11T04:59:33;10.75;;;8.60;;
51148;SDS011;37210;50.058;8.688;2022-11-11T05:02:20;18.27;;;8.60;;
51148;SDS011;37210;50.058;8.688;2022-11-11T05:05:24;9.00;;;7.70;;
51148;SDS011;37210;50.058;8.688;2022-11-11T05:08:12;9.75;;;8.75;;
51148;SDS011;37210;50.058;8.688;2022-11-11T05:11:16;9.65;;;7.70;;
51148;SDS011;37210;50.058;8.688;2022-11-11T05:14:04;8.50;;;7.57;;
51148;SDS011;37210;50.058;8.688;2022-11-11T05:17:09;9.32;;;8.32;;
51148;SDS011;37210;50.058;8.688;2022-11-11T05:20:13;9.35;;;7.82;;
51148;SDS011;37210;50.058;8.688;2022-11-11T05:23:14;9.63;;;8.18;;
51148;SDS011;37210;50.058;8.688;2022-11-11T05:26:00;10.98;;;8.77;;
51148;SDS011;37210;50.058;8.688;2022-11-11T05:28:45;10.57;;;8.10;;
51148;SDS011;37210;50.058;8.688;2022-11-11T05:31:32;13.70;;;8.43;;
51148;SDS011;37210;50.058;8.688;2022-11-11T05:34:19;12.52;;;7.97;;
51148;SDS011;37210;50.058;8.688;2022-11-11T05:37:05;12.35;;;8.10;;
51148;SDS011;37210;50.058;8.688;2022-11-11T05:39:52;12.68;;;7.10;;
51148;SDS011;37210;50.058;8.688;2022-11-11T05:45:26;8.95;;;6.95;;
51148;SDS011;37210;50.058;8.688;2022-11-11T05:48:14;11.35;;;6.50;;
51148;SDS011;37210;50.058;8.688;2022-11-11T05:56:34;10.15;;;6.38;;
51148;SDS011;37210;50.058;8.688;2022-11-11T05:59:22;11.63;;;6.38;;
51148;SDS011;37210;50.058;8.688;2022-11-11T06:02:08;7.88;;;6.25;;
51148;SDS011;37210;50.058;8.688;2022-11-11T06:04:56;8.45;;;6.22;;
51148;SDS011;37210;50.058;8.688;2022-11-11T06:07:44;12.85;;;6.13;;
51148;SDS011;37210;50.058;8.688;2022-11-11T06:10:30;7.97;;;5.68;;
51148;SDS011;37210;50.058;8.688;2022-11-11T06:13:17;8.73;;;5.97;;
51148;SDS011;37210;50.058;8.688;2022-11-11T06:16:03;12.85;;;6.05;;
51148;SDS011;37210;50.058;8.688;2022-11-11T06:18:51;7.85;;;6.00;;
51148;SDS011;37210;50.058;8.688;2022-11-11T06:21:39;9.63;;;5.97;;
51148;SDS011;37210;50.058;8.688;2022-11-11T06:24:47;11.45;;;6.65;;
51148;SDS011;37210;50.058;8.688;2022-11-11T06:27:53;7.53;;;6.25;;
51148;SDS011;37210;50.058;8.688;2022-11-11T06:30:39;7.50;;;6.22;;
51148;SDS011;37210;50.058;8.688;2022-11-11T06:33:26;15.20;;;6.78;;
51148;SDS011;37210;50.058;8.688;2022-11-11T06:36:13;8.77;;;6.10;;
51148;SDS011;37210;50.058;8.688;2022-11-11T06:39:06;11.77;;;6.80;;
51148;SDS011;37210;50.058;8.688;2022-11-11T06:41:53;25.30;;;7.13;;
51148;SDS011;37210;50.058;8.688;2022-11-11T06:44:39;13.80;;;7.05;;
51148;SDS011;37210;50.058;8.688;2022-11-11T06:47:26;11.30;;;6.18;;
51148;SDS011;37210;50.058;8.688;2022-11-11T06:50:13;6.55;;;5.85;;
51148;SDS011;37210;50.058;8.688;2022-11-11T06:53:04;9.27;;;6.53;;
51148;SDS011;37210;50.058;8.688;2022-11-11T06:55:52;9.07;;;6.60;;
51148;SDS011;37210;50.058;8.688;2022-11-11T06:58:38;6.97;;;6.28;;
51148;SDS011;37210;50.058;8.688;2022-11-11T07:01:24;13.05;;;7.18;;
51148;SDS011;37210;50.058;8.688;2022-11-11T07:04:10;7.82;;;6.78;;
51148;SDS011;37210;50.058;8.688;2022-11-11T07:06:57;8.30;;;6.35;;
51148;SDS011;37210;50.058;8.688;2022-11-11T07:09:43;9.38;;;6.93;;
51148;SDS011;37210;50.058;8.688;2022-11-11T07:12:31;26.42;;;9.18;;
51148;SDS011;37210;50.058;8.688;2022-11-11T07:15:18;13.02;;;8.27;;
51148;SDS011;37210;50.058;8.688;2022-11-11T07:18:04;16.92;;;8.45;;
51148;SDS011;37210;50.058;8.688;2022-11-11T07:20:51;11.80;;;9.13;;
51148;SDS011;37210;50.058;8.688;2022-11-11T07:23:37;22.95;;;9.77;;
51148;SDS011;37210;50.058;8.688;2022-11-11T07:26:23;51.03;;;11.00;;
51148;SDS011;37210;50.058;8.688;2022-11-11T07:29:12;33.10;;;9.65;;
51148;SDS011;37210;50.058;8.688;2022-11-11T07:32:00;33.45;;;10.60;;
51148;SDS011;37210;50.058;8.688;2022-11-11T07:34:47;22.63;;;10.07;;
51148;SDS011;37210;50.058;8.688;2022-11-11T07:37:35;18.65;;;9.13;;
51148;SDS011;37210;50.058;8.688;2022-11-11T07:43:07;9.73;;;7.40;;
51148;SDS011;37210;50.058;8.688;2022-11-11T07:45:55;9.80;;;7.30;;
51148;SDS011;37210;50.058;8.688;2022-11-11T07:51:27;8.70;;;7.05;;
51148;SDS011;37210;50.058;8.688;2022-11-11T07:54:14;8.63;;;7.57;;
51148;SDS011;37210;50.058;8.688;2022-11-11T07:57:00;11.13;;;6.97;;
51148;SDS011;37210;50.058;8.688;2022-11-11T07:59:46;11.27;;;7.60;;
51148;SDS011;37210;50.058;8.688;2022-11-11T08:02:33;11.20;;;7.60;;
51148;SDS011;37210;50.058;8.688;2022-11-11T08:05:19;10.32;;;8.45;;
51148;SDS011;37210;50.058;8.688;2022-11-11T08:08:06;14.57;;;8.43;;
51148;SDS011;37210;50.058;8.688;2022-11-11T08:10:54;11.75;;;7.32;;
51148;SDS011;37210;50.058;8.688;2022-11-11T08:13:40;20.48;;;9.43;;
51148;SDS011;37210;50.058;8.688;2022-11-11T08:16:27;13.02;;;8.32;;
51148;SDS011;37210;50.058;8.688;2022-11-11T08:19:14;16.58;;;9.48;;
51148;SDS011;37210;50.058;8.688;2022-11-11T08:24:47;13.48;;;10.15;;
51148;SDS011;37210;50.058;8.688;2022-11-11T08:27:36;14.35;;;9.75;;
51148;SDS011;37210;50.058;8.688;2022-11-11T08:30:22;14.52;;;9.65;;
51148;SDS011;37210;50.058;8.688;2022-11-11T08:33:08;14.02;;;9.60;;
51148;SDS011;37210;50.058;8.688;2022-11-11T08:35:57;15.82;;;9.88;;
51148;SDS011;37210;50.058;8.688;2022-11-11T08:38:44;13.35;;;9.50;;
51148;SDS011;37210;50.058;8.688;2022-11-11T08:41:30;13.88;;;9.25;;
51148;SDS011;37210;50.058;8.688;2022-11-11T08:44:17;14.85;;;9.82;;
51148;SDS011;37210;50.058;8.688;2022-11-11T08:47:03;12.70;;;9.35;;
51148;SDS011;37210;50.058;8.688;2022-11-11T08:49:49;14.73;;;9.13;;
51148;SDS011;37210;50.058;8.688;2022-11-11T08:52:38;13.65;;;9.20;;
51148;SDS011;37210;50.058;8.688;2022-11-11T08:55:31;16.42;;;9.35;;
51148;SDS011;37210;50.058;8.688;2022-11-11T08:58:18;14.73;;;9.60;;
51148;SDS011;37210;50.058;8.688;2022-11-11T09:01:04;14.05;;;10.20;;
51148;SDS011;37210;50.058;8.688;2022-11-11T09:03:56;15.70;;;10.50;;
51148;SDS011;37210;50.058;8.688;2022-11-11T09:06:42;10.88;;;9.80;;
51148;SDS011;37210;50.058;8.688;2022-11-11T09:09:31;14.07;;;10.43;;
51148;SDS011;37210;50.058;8.688;2022-11-11T09:12:18;15.45;;;10.43;;
51148;SDS011;37210;50.058;8.688;2022-11-11T09:15:05;12.63;;;9.90;;
51148;SDS011;37210;50.058;8.688;2022-11-11T09:17:52;14.80;;;10.25;;
51148;SDS011;37210;50.058;8.688;2022-11-11T09:20:38;15.33;;;11.23;;
51148;SDS011;37210;50.058;8.688;2022-11-11T09:23:25;14.88;;;11.73;;
51148;SDS011;37210;50.058;8.688;2022-11-11T09:26:12;17.77;;;11.80;;
51148;SDS011;37210;50.058;8.688;2022-11-11T09:28:59;15.73;;;11.90;;
51148;SDS011;37210;50.058;8.688;2022-11-11T09:31:45;20.05;;;13.45;;
51148;SDS011;37210;50.058;8.688;2022-11-11T09:34:31;18.37;;;15.23;;
51148;SDS011;37210;50.058;8.688;2022-11-11T09:37:18;21.15;;;16.23;;
51148;SDS011;37210;50.058;8.688;2022-11-11T09:40:04;16.25;;;11.82;;
51148;SDS011;37210;50.058;8.688;2022-11-11T09:42:58;16.65;;;13.13;;
51148;SDS011;37210;50.058;8.688;2022-11-11T09:45:58;28.83;;;23.63;;
51148;SDS011;37210;50.058;8.688;2022-11-11T09:49:14;19.40;;;14.70;;
51148;SDS011;37210;50.058;8.688;2022-11-11T09:52:33;17.83;;;12.38;;
51148;SDS011;37210;50.058;8.688;2022-11-11T09:55:32;19.95;;;15.23;;
51148;SDS011;37210;50.058;8.688;2022-11-11T09:58:30;14.23;;;12.25;;
51148;SDS011;37210;50.058;8.688;2022-11-11T10:01:22;19.70;;;13.43;;
51148;SDS011;37210;50.058;8.688;2022-11-11T10:04:16;20.77;;;13.73;;
51148;SDS011;37210;50.058;8.688;2022-11-11T10:07:17;23.27;;;16.33;;
51148;SDS011;37210;50.058;8.688;2022-11-11T10:10:17;19.23;;;16.00;;
51148;SDS011;37210;50.058;8.688;2022-11-11T10:13:12;27.38;;;20.60;;
51148;SDS011;37210;50.058;8.688;2022-11-11T10:16:05;18.60;;;14.02;;
51148;SDS011;37210;50.058;8.688;2022-11-11T10:19:10;22.42;;;17.58;;
51148;SDS011;37210;50.058;8.688;2022-11-11T10:22:18;14.43;;;12.57;;
51148;SDS011;37210;50.058;8.688;2022-11-11T10:25:08;14.57;;;12.10;;
51148;SDS011;37210;50.058;8.688;2022-11-11T10:28:07;13.85;;;12.30;;
51148;SDS011;37210;50.058;8.688;2022-11-11T10:31:01;12.77;;;11.35;;
51148;SDS011;37210;50.058;8.688;2022-11-11T10:33:58;16.85;;;12.27;;
51148;SDS011;37210;50.058;8.688;2022-11-11T10:36:53;13.82;;;11.43;;
51148;SDS011;37210;50.058;8.688;2022-11-11T10:39:49;15.18;;;11.65;;
51148;SDS011;37210;50.058;8.688;2022-11-11T10:42:49;13.85;;;11.65;;
51148;SDS011;37210;50.058;8.688;2022-11-11T10:45:38;16.98;;;13.70;;
51148;SDS011;37210;50.058;8.688;2022-11-11T10:48:36;16.35;;;12.70;;
51148;SDS011;37210;50.058;8.688;2022-11-11T10:51:36;15.05;;;11.73;;
51148;SDS011;37210;50.058;8.688;2022-11-11T10:54:32;14.05;;;11.73;;
51148;SDS011;37210;50.058;8.688;2022-11-11T10:57:28;14.43;;;12.25;;
51148;SDS011;37210;50.058;8.688;2022-11-11T11:00:19;16.33;;;12.38;;
51148;SDS011;37210;50.058;8.688;2022-11-11T11:03:07;14.98;;;13.38;;
51148;SDS011;37210;50.058;8.688;2022-11-11T11:06:03;14.45;;;11.75;;
51148;SDS011;37210;50.058;8.688;2022-11-11T11:08:56;16.15;;;12.77;;
51148;SDS011;37210;50.058;8.688;2022-11-11T11:11:51;15.77;;;13.25;;
51148;SDS011;37210;50.058;8.688;2022-11-11T11:14:44;14.85;;;12.95;;
51148;SDS011;37210;50.058;8.688;2022-11-11T11:17:38;17.13;;;13.82;;
51148;SDS011;37210;50.058;8.688;2022-11-11T11:20:36;16.30;;;13.43;;
51148;SDS011;37210;50.058;8.688;2022-11-11T11:23:35;16.10;;;13.10;;
51148;SDS011;37210;50.058;8.688;2022-11-11T11:26:24;16.98;;;12.98;;
51148;SDS011;37210;50.058;8.688;2022-11-11T11:29:30;15.52;;;13.75;;
51148;SDS011;37210;50.058;8.688;2022-11-11T11:32:19;18.02;;;14.20;;
51148;SDS011;37210;50.058;8.688;2022-11-11T11:35:13;15.85;;;13.57;;
51148;SDS011;37210;50.058;8.688;2022-11-11T11:38:19;18.53;;;14.10;;
51148;SDS011;37210;50.058;8.688;2022-11-11T11:41:07;19.40;;;14.48;;
51148;SDS011;37210;50.058;8.688;2022-11-11T11:43:53;18.58;;;14.98;;
51148;SDS011;37210;50.058;8.688;2022-11-11T11:46:39;19.27;;;14.65;;
51148;SDS011;37210;50.058;8.688;2022-11-11T11:49:34;20.60;;;14.55;;
51148;SDS011;37210;50.058;8.688;2022-11-11T11:55:36;20.38;;;15.10;;
51148;SDS011;37210;50.058;8.688;2022-11-11T11:58:34;19.42;;;14.40;;
51148;SDS011;37210;50.058;8.688;2022-11-11T12:01:34;22.33;;;15.10;;
51148;SDS011;37210;50.058;8.688;2022-11-11T12:04:41;15.52;;;13.07;;
51148;SDS011;37210;50.058;8.688;2022-11-11T12:07:59;19.20;;;13.95;;
51148;SDS011;37210;50.058;8.688;2022-11-11T12:10:56;17.48;;;13.18;;
51148;SDS011;37210;50.058;8.688;2022-11-11T12:14:02;15.43;;;13.52;;
51148;SDS011;37210;50.058;8.688;2022-11-11T12:17:18;16.50;;;13.13;;
51148;SDS011;37210;50.058;8.688;2022-11-11T12:20:22;19.27;;;15.10;;
51148;SDS011;37210;50.058;8.688;2022-11-11T12:26:48;20.25;;;15.50;;
51148;SDS011;37210;50.058;8.688;2022-11-11T12:29:51;15.88;;;12.82;;
51148;SDS011;37210;50.058;8.688;2022-11-11T12:32:59;17.88;;;13.95;;
51148;SDS011;37210;50.058;8.688;2022-11-11T12:36:10;18.33;;;14.20;;
51148;SDS011;37210;50.058;8.688;2022-11-11T12:39:10;20.65;;;15.52;;
51148;SDS011;37210;50.058;8.688;2022-11-11T12:42:29;18.15;;;15.65;;
51148;SDS011;37210;50.058;8.688;2022-11-11T12:45:44;19.92;;;16.35;;
51148;SDS011;37210;50.058;8.688;2022-11-11T12:48:37;19.67;;;15.10;;
51148;SDS011;37210;50.058;8.688;2022-11-11T12:51:43;17.50;;;14.50;;
51148;SDS011;37210;50.058;8.688;2022-11-11T12:54:47;20.60;;;15.02;;
51148;SDS011;37210;50.058;8.688;2022-11-11T12:57:59;17.90;;;15.93;;
51148;SDS011;37210;50.058;8.688;2022-11-11T13:01:06;19.77;;;16.33;;
51148;SDS011;37210;50.058;8.688;2022-11-11T13:04:21;21.50;;;16.02;;
51148;SDS011;37210;50.058;8.688;2022-11-11T13:07:26;19.80;;;15.90;;
51148;SDS011;37210;50.058;8.688;2022-11-11T13:10:35;20.02;;;14.95;;
51148;SDS011;37210;50.058;8.688;2022-11-11T13:13:34;19.13;;;15.60;;
51148;SDS011;37210;50.058;8.688;2022-11-11T13:16:37;25.67;;;17.30;;
51148;SDS011;37210;50.058;8.688;2022-11-11T13:19:26;25.25;;;16.75;;
51148;SDS011;37210;50.058;8.688;2022-11-11T13:22:21;20.87;;;16.90;;
51148;SDS011;37210;50.058;8.688;2022-11-11T13:25:12;19.70;;;15.80;;
51148;SDS011;37210;50.058;8.688;2022-11-11T13:28:03;17.40;;;14.25;;
51148;SDS011;37210;50.058;8.688;2022-11-11T13:31:05;21.42;;;15.82;;
51148;SDS011;37210;50.058;8.688;2022-11-11T13:34:08;17.20;;;14.90;;
51148;SDS011;37210;50.058;8.688;2022-11-11T13:36:57;17.10;;;15.27;;
51148;SDS011;37210;50.058;8.688;2022-11-11T13:39:44;20.17;;;15.40;;
51148;SDS011;37210;50.058;8.688;2022-11-11T13:42:36;17.98;;;14.02;;
51148;SDS011;37210;50.058;8.688;2022-11-11T13:45:27;17.60;;;14.38;;
51148;SDS011;37210;50.058;8.688;2022-11-11T13:48:20;23.42;;;15.43;;
51148;SDS011;37210;50.058;8.688;2022-11-11T13:51:19;20.35;;;15.73;;
51148;SDS011;37210;50.058;8.688;2022-11-11T13:54:19;21.27;;;16.67;;
51148;SDS011;37210;50.058;8.688;2022-11-11T13:57:16;21.92;;;16.92;;
51148;SDS011;37210;50.058;8.688;2022-11-11T14:00:06;19.20;;;16.13;;
51148;SDS011;37210;50.058;8.688;2022-11-11T14:03:30;21.38;;;15.45;;
51148;SDS011;37210;50.058;8.688;2022-11-11T14:06:35;17.75;;;14.73;;
51148;SDS011;37210;50.058;8.688;2022-11-11T14:09:50;21.58;;;15.30;;
51148;SDS011;37210;50.058;8.688;2022-11-11T14:12:42;21.55;;;15.10;;
51148;SDS011;37210;50.058;8.688;2022-11-11T14:15:37;16.90;;;14.55;;
51148;SDS011;37210;50.058;8.688;2022-11-11T14:18:36;19.75;;;14.02;;
51148;SDS011;37210;50.058;8.688;2022-11-11T14:21:42;15.93;;;13.40;;
51148;SDS011;37210;50.058;8.688;2022-11-11T14:24:34;16.20;;;13.57;;
51148;SDS011;37210;50.058;8.688;2022-11-11T14:27:25;18.75;;;15.30;;
51148;SDS011;37210;50.058;8.688;2022-11-11T14:30:28;17.95;;;14.52;;
51148;SDS011;37210;50.058;8.688;2022-11-11T14:33:27;18.40;;;14.93;;
51148;SDS011;37210;50.058;8.688;2022-11-11T14:36:31;18.75;;;13.73;;
51148;SDS011;37210;50.058;8.688;2022-11-11T14:39:31;18.25;;;15.65;;
51148;SDS011;37210;50.058;8.688;2022-11-11T14:42:43;21.00;;;15.48;;
51148;SDS011;37210;50.058;8.688;2022-11-11T14:48:53;20.08;;;15.82;;
51148;SDS011;37210;50.058;8.688;2022-11-11T14:51:49;23.15;;;15.77;;
51148;SDS011;37210;50.058;8.688;2022-11-11T14:54:45;20.55;;;15.70;;
51148;SDS011;37210;50.058;8.688;2022-11-11T14:57:40;20.23;;;16.33;;
51148;SDS011;37210;50.058;8.688;2022-11-11T15:00:32;23.70;;;17.67;;
51148;SDS011;37210;50.058;8.688;2022-11-11T15:03:33;22.23;;;16.70;;
51148;SDS011;37210;50.058;8.688;2022-11-11T15:06:25;20.30;;;16.17;;
51148;SDS011;37210;50.058;8.688;2022-11-11T15:09:25;22.48;;;15.88;;
51148;SDS011;37210;50.058;8.688;2022-11-11T15:12:42;21.23;;;16.70;;
51148;SDS011;37210;50.058;8.688;2022-11-11T15:15:46;21.10;;;16.17;;
51148;SDS011;37210;50.058;8.688;2022-11-11T15:18:53;22.42;;;17.65;;
51148;SDS011;37210;50.058;8.688;2022-11-11T15:22:07;27.73;;;18.33;;
51148;SDS011;37210;50.058;8.688;2022-11-11T15:25:16;23.42;;;16.55;;
51148;SDS011;37210;50.058;8.688;2022-11-11T15:28:22;22.30;;;16.55;;
51148;SDS011;37210;50.058;8.688;2022-11-11T15:31:34;24.70;;;18.13;;
51148;SDS011;37210;50.058;8.688;2022-11-11T15:34:33;21.65;;;16.27;;
51148;SDS011;37210;50.058;8.688;2022-11-11T15:37:27;22.35;;;17.95;;
51148;SDS011;37210;50.058;8.688;2022-11-11T15:43:10;23.25;;;17.17;;
51148;SDS011;37210;50.058;8.688;2022-11-11T15:46:03;28.80;;;19.20;;
51148;SDS011;37210;50.058;8.688;2022-11-11T15:48:51;22.02;;;18.58;;
51148;SDS011;37210;50.058;8.688;2022-11-11T15:51:37;25.20;;;19.30;;
51148;SDS011;37210;50.058;8.688;2022-11-11T15:54:23;30.13;;;21.30;;
51148;SDS011;37210;50.058;8.688;2022-11-11T15:57:27;28.15;;;19.27;;
51148;SDS011;37210;50.058;8.688;2022-11-11T16:00:24;28.80;;;20.45;;
51148;SDS011;37210;50.058;8.688;2022-11-11T16:03:17;38.05;;;22.27;;
51148;SDS011;37210;50.058;8.688;2022-11-11T16:06:10;25.23;;;19.00;;
51148;SDS011;37210;50.058;8.688;2022-11-11T16:09:00;30.60;;;20.38;;
51148;SDS011;37210;50.058;8.688;2022-11-11T16:11:48;26.77;;;19.95;;
51148;SDS011;37210;50.058;8.688;2022-11-11T16:14:40;25.83;;;19.75;;
51148;SDS011;37210;50.058;8.688;2022-11-11T16:17:32;27.13;;;20.13;;
51148;SDS011;37210;50.058;8.688;2022-11-11T16:20:26;27.80;;;21.52;;
51148;SDS011;37210;50.058;8.688;2022-11-11T16:23:19;26.38;;;18.98;;
51148;SDS011;37210;50.058;8.688;2022-11-11T16:26:06;21.17;;;16.77;;
51148;SDS011;37210;50.058;8.688;2022-11-11T16:28:55;23.67;;;17.48;;
51148;SDS011;37210;50.058;8.688;2022-11-11T16:31:44;24.42;;;18.80;;
51148;SDS011;37210;50.058;8.688;2022-11-11T16:34:32;23.45;;;16.42;;
51148;SDS011;37210;50.058;8.688;2022-11-11T16:37:41;24.90;;;19.15;;
51148;SDS011;37210;50.058;8.688;2022-11-11T16:40:49;26.10;;;17.15;;
51148;SDS011;37210;50.058;8.688;2022-11-11T16:43:47;21.60;;;17.85;;
51148;SDS011;37210;50.058;8.688;2022-11-11T16:47:17;21.13;;;15.52;;
51148;SDS011;37210;50.058;8.688;2022-11-11T16:55:22;42.25;;;16.85;;
51148;SDS011;37210;50.058;8.688;2022-11-11T16:58:28;23.80;;;16.20;;
51148;SDS011;37210;50.058;8.688;2022-11-11T17:01:31;22.42;;;16.52;;
51148;SDS011;37210;50.058;8.688;2022-11-11T17:07:45;21.85;;;15.55;;
51148;SDS011;37210;50.058;8.688;2022-11-11T17:10:43;19.48;;;15.25;;
51148;SDS011;37210;50.058;8.688;2022-11-11T17:17:51;18.38;;;14.32;;
51148;SDS011;37210;50.058;8.688;2022-11-11T17:20:44;16.58;;;13.35;;
51148;SDS011;37210;50.058;8.688;2022-11-11T17:23:31;20.85;;;14.48;;
51148;SDS011;37210;50.058;8.688;2022-11-11T17:26:19;22.30;;;14.90;;
51148;SDS011;37210;50.058;8.688;2022-11-11T17:29:06;16.35;;;13.63;;
51148;SDS011;37210;50.058;8.688;2022-11-11T17:31:54;22.00;;;13.25;;
51148;SDS011;37210;50.058;8.688;2022-11-11T17:34:41;24.85;;;13.00;;
51148;SDS011;37210;50.058;8.688;2022-11-11T17:37:29;28.83;;;13.32;;
51148;SDS011;37210;50.058;8.688;2022-11-11T17:40:36;19.73;;;16.08;;
51148;SDS011;37210;50.058;8.688;2022-11-11T17:43:28;16.63;;;14.02;;
51148;SDS011;37210;50.058;8.688;2022-11-11T17:46:22;36.47;;;16.25;;
51148;SDS011;37210;50.058;8.688;2022-11-11T17:49:09;18.63;;;12.50;;
51148;SDS011;37210;50.058;8.688;2022-11-11T17:51:56;16.17;;;12.73;;